Time;durP1;ratioP1;P1;durP2;ratioP2;P2;SDS_P1;SDS_P2;PMS_P1;PMS_P2;Temp;Humidity;BMP_temperature;BMP_pressure;BME280_temperature;BME280_humidity;BME280_pressure;Samples;Min_cycle;Max_cycle;Signal;HPM_P1;HPM_P2
2021/01/09 00:00:26;;;;;;;14.82;8.95;;;;;;;4.84;61.99;102059.91;4932742;28;114391;-71
2021/01/09 00:02:53;;;;;;;14.15;8.60;;;;;;;4.81;62.23;102054.63;4902524;28;113209;-70
2021/01/09 00:05:20;;;;;;;15.15;8.90;;;;;;;4.79;62.24;102056.41;4916417;28;122941;-70
2021/01/09 00:07:47;;;;;;;16.27;9.45;;;;;;;4.79;62.15;102058.16;4917215;28;122898;-71
2021/01/09 00:10:13;;;;;;;18.13;9.32;;;;;;;4.77;62.02;102063.41;4929804;28;116267;-71
2021/01/09 00:12:40;;;;;;;15.63;9.80;;;;;;;4.75;62.36;102065.16;4924741;28;114189;-71
2021/01/09 00:15:08;;;;;;;16.63;9.55;;;;;;;4.73;62.25;102069.53;4931004;28;124180;-71
2021/01/09 00:17:36;;;;;;;16.52;9.75;;;;;;;4.72;62.09;102070.41;4930426;28;124375;-71
2021/01/09 00:20:08;;;;;;;18.90;10.32;;;;;;;4.70;62.24;102074.78;4913294;28;114311;-70
2021/01/09 00:22:35;;;;;;;16.15;9.30;;;;;;;4.69;62.30;102073.03;4924359;28;115780;-71
2021/01/09 00:25:06;;;;;;;18.02;10.27;;;;;;;4.67;62.14;102074.75;4925650;28;123739;-71
2021/01/09 00:27:33;;;;;;;15.90;9.70;;;;;;;4.66;62.22;102073.03;4914184;28;123885;-70
2021/01/09 00:30:00;;;;;;;16.15;9.05;;;;;;;4.64;62.23;102078.28;4917901;28;113813;-70
2021/01/09 00:32:26;;;;;;;16.00;9.48;;;;;;;4.64;62.41;102080.03;4915382;28;115411;-71
2021/01/09 00:34:55;;;;;;;14.68;9.05;;;;;;;4.62;62.29;102068.66;4930218;28;123949;-71
2021/01/09 00:37:26;;;;;;;18.42;8.70;;;;;;;4.63;62.25;102078.28;4916339;28;122915;-70
2021/01/09 00:39:53;;;;;;;14.38;8.98;;;;;;;4.60;62.23;102075.66;4935331;28;114267;-71
2021/01/09 00:42:20;;;;;;;16.48;9.23;;;;;;;4.60;62.25;102080.91;4935903;28;114180;-71
2021/01/09 00:44:46;;;;;;;15.77;8.55;;;;;;;4.59;62.35;102085.25;4926419;28;124561;-70
2021/01/09 00:47:13;;;;;;;14.73;9.18;;;;;;;4.57;62.03;102080.91;4895316;28;123204;-70
2021/01/09 00:49:40;;;;;;;15.70;8.98;;;;;;;4.55;62.07;102082.66;4925102;28;114496;-72
2021/01/09 00:52:06;;;;;;;14.32;8.65;;;;;;;4.53;62.20;102084.41;4929291;28;113997;-71
2021/01/09 00:54:33;;;;;;;14.82;8.73;;;;;;;4.52;62.12;102086.16;4927780;28;124399;-71
2021/01/09 00:56:59;;;;;;;15.63;9.43;;;;;;;4.51;62.11;102091.41;4916827;28;123101;-70
2021/01/09 00:59:26;;;;;;;14.75;8.70;;;;;;;4.49;62.37;102088.78;4931155;28;114647;-71
2021/01/09 01:01:53;;;;;;;14.60;9.45;;;;;;;4.48;62.43;102085.28;4916206;28;113354;-71
2021/01/09 01:04:20;;;;;;;13.30;8.68;;;;;;;4.47;62.41;102080.03;4932474;28;124040;-70
2021/01/09 01:06:48;;;;;;;15.38;9.30;;;;;;;4.46;62.18;102078.28;4918908;28;123844;-70
2021/01/09 01:09:14;;;;;;;16.02;9.50;;;;;;;4.47;62.40;102080.91;4926986;28;115381;-70
2021/01/09 01:11:42;;;;;;;14.82;8.75;;;;;;;4.46;62.50;102084.41;4916072;28;114089;-71
2021/01/09 01:14:09;;;;;;;15.43;9.45;;;;;;;4.46;62.53;102084.41;4933009;28;124911;-70
2021/01/09 01:16:36;;;;;;;14.88;8.63;;;;;;;4.49;62.62;102092.28;4917465;28;122701;-71
2021/01/09 01:19:03;;;;;;;16.65;9.93;;;;;;;4.48;62.65;102087.91;4931131;28;114451;-71
2021/01/09 01:21:33;;;;;;;12.85;8.95;;;;;;;4.49;62.58;102100.13;4927881;28;114520;-71
2021/01/09 01:24:00;;;;;;;15.38;9.07;;;;;;;4.51;62.73;102091.41;4915438;28;124076;-71
2021/01/09 01:26:27;;;;;;;14.82;8.95;;;;;;;4.51;62.57;102094.03;4928089;28;124189;-70
2021/01/09 01:28:53;;;;;;;16.25;8.80;;;;;;;4.51;62.69;102096.66;4931077;28;114741;-71
2021/01/09 01:31:22;;;;;;;14.77;8.95;;;;;;;4.52;62.55;102093.13;4928839;28;114015;-71
2021/01/09 01:33:49;;;;;;;15.43;8.73;;;;;;;4.51;62.46;102101.91;4930521;28;123975;-70
2021/01/09 01:36:16;;;;;;;13.77;8.63;;;;;;;4.51;62.41;102101.91;4917708;28;124697;-71
2021/01/09 01:38:43;;;;;;;12.68;8.13;;;;;;;4.49;62.31;102110.63;4919239;28;114272;-70
2021/01/09 01:41:10;;;;;;;12.82;8.32;;;;;;;4.48;62.24;102103.66;4926918;28;114675;-70
2021/01/09 01:43:37;;;;;;;15.30;9.27;;;;;;;4.45;62.20;102111.50;4927413;28;124749;-70
2021/01/09 01:46:06;;;;;;;14.10;8.38;;;;;;;4.45;62.24;102114.13;4897141;28;122568;-72
2021/01/09 01:48:36;;;;;;;14.38;8.43;;;;;;;4.43;62.28;102126.38;4929247;28;114422;-70
2021/01/09 01:51:03;;;;;;;12.48;7.95;;;;;;;4.41;62.24;102122.88;4930011;28;113847;-70
2021/01/09 01:53:31;;;;;;;13.05;8.15;;;;;;;4.40;62.13;102130.75;4924545;28;124100;-70
2021/01/09 01:55:57;;;;;;;13.00;8.20;;;;;;;4.38;62.37;102133.34;4922772;28;125248;-71
2021/01/09 01:58:24;;;;;;;15.02;8.65;;;;;;;4.36;62.36;102135.09;4929183;28;115484;-70
2021/01/09 02:00:51;;;;;;;15.27;9.15;;;;;;;4.36;62.22;102140.34;4925614;28;114999;-70
2021/01/09 02:03:19;;;;;;;14.60;8.77;;;;;;;4.35;62.54;102136.00;4913424;28;123001;-70
2021/01/09 02:05:55;;;;;;;13.93;8.15;;;;;;;4.34;62.21;102144.72;4928075;28;124165;-70
2021/01/09 02:08:32;;;;;;;16.10;8.60;;;;;;;4.30;62.23;102140.34;4928656;28;113338;-70
2021/01/09 02:11:03;;;;;;;13.32;8.73;;;;;;;4.27;62.28;102148.19;4921010;28;113409;-71
2021/01/09 02:13:42;;;;;;;14.30;8.80;;;;;;;4.24;61.98;102150.84;4913665;28;122981;-71
2021/01/09 02:16:10;;;;;;;13.57;8.05;;;;;;;4.19;61.85;102144.69;4929289;28;122320;-70
2021/01/09 02:18:41;;;;;;;14.75;8.30;;;;;;;4.14;62.11;102144.66;4914314;28;113343;-71
2021/01/09 02:21:34;;;;;;;14.18;8.15;;;;;;;4.07;61.99;102149.03;4927303;28;114069;-71
2021/01/09 02:24:00;;;;;;;15.43;8.32;;;;;;;4.06;61.99;102157.75;4921536;28;123236;-70
2021/01/09 02:26:27;;;;;;;17.35;8.30;;;;;;;4.03;61.89;102157.75;4927776;28;124739;-71
2021/01/09 02:28:54;;;;;;;13.68;8.82;;;;;;;4.01;62.04;102158.59;4930397;28;114028;-70
2021/01/09 02:31:22;;;;;;;13.45;8.40;;;;;;;3.98;62.12;102162.09;4928382;28;113647;-71
2021/01/09 02:33:49;;;;;;;14.63;8.25;;;;;;;3.95;61.87;102159.47;4928827;28;123263;-71
2021/01/09 02:36:17;;;;;;;15.88;8.10;;;;;;;3.93;61.88;102162.97;4910671;28;124150;-71
2021/01/09 02:38:44;;;;;;;14.68;7.63;;;;;;;3.90;61.95;102163.84;4910851;28;113532;-70
2021/01/09 02:41:13;;;;;;;14.73;8.57;;;;;;;3.86;61.93;102164.66;4929906;28;113822;-70
2021/01/09 02:43:39;;;;;;;15.15;8.75;;;;;;;3.82;61.72;102168.16;4929527;28;123456;-71
2021/01/09 02:46:06;;;;;;;15.95;9.02;;;;;;;3.80;61.89;102164.66;4926136;28;122945;-70
2021/01/09 02:48:33;;;;;;;14.05;8.65;;;;;;;3.79;61.90;102163.78;4896381;28;98252;-71
2021/01/09 02:51:00;;;;;;;17.42;9.50;;;;;;;3.79;61.98;102160.28;4927672;28;113989;-71
2021/01/09 02:53:27;;;;;;;18.98;9.85;;;;;;;3.78;62.18;102161.16;4921615;28;124294;-70
2021/01/09 02:55:53;;;;;;;14.38;8.88;;;;;;;3.79;62.16;102160.28;4923817;28;123839;-71
2021/01/09 02:58:20;;;;;;;18.15;9.13;;;;;;;3.77;62.17;102155.03;4923341;28;114439;-71
2021/01/09 03:00:46;;;;;;;16.23;9.82;;;;;;;3.79;62.08;102168.16;4922173;28;114822;-71
2021/01/09 03:03:13;;;;;;;15.00;9.57;;;;;;;3.80;62.17;102164.66;4910370;28;123712;-71
2021/01/09 03:05:39;;;;;;;17.48;9.63;;;;;;;3.80;62.29;102164.66;4927486;28;124142;-71
2021/01/09 03:08:06;;;;;;;14.73;8.90;;;;;;;3.81;62.21;102166.41;4912184;28;113623;-71
2021/01/09 03:10:33;;;;;;;16.85;9.35;;;;;;;3.81;62.37;102169.91;4932375;28;114122;-71
2021/01/09 03:12:59;;;;;;;16.30;9.60;;;;;;;3.81;62.09;102174.28;4910917;28;123646;-70
2021/01/09 03:15:26;;;;;;;17.77;8.95;;;;;;;3.81;62.29;102182.13;4930100;28;123731;-71
2021/01/09 03:17:53;;;;;;;16.00;9.20;;;;;;;3.81;62.11;102171.66;4932563;23;113396;-69
2021/01/09 03:20:20;;;;;;;16.67;9.15;;;;;;;3.81;61.96;102171.66;4933563;28;114593;-69
2021/01/09 03:22:46;;;;;;;16.17;9.68;;;;;;;3.80;62.33;102169.88;4934309;28;123242;-69
2021/01/09 03:25:13;;;;;;;13.93;9.07;;;;;;;3.79;62.29;102168.16;4951131;28;124935;-69
2021/01/09 03:27:40;;;;;;;15.77;9.18;;;;;;;3.77;62.09;102170.75;4951565;28;114463;-68
2021/01/09 03:30:07;;;;;;;14.93;9.35;;;;;;;3.76;62.19;102173.38;4944145;28;114014;-68
2021/01/09 03:32:33;;;;;;;17.60;9.65;;;;;;;3.75;62.14;102171.59;4944640;28;124522;-68
2021/01/09 03:35:02;;;;;;;15.63;8.88;;;;;;;3.72;61.96;102171.59;4927872;28;122647;-68
2021/01/09 03:37:28;;;;;;;13.73;8.80;;;;;;;3.70;61.91;102175.09;4933502;28;114798;-69
2021/01/09 03:39:55;;;;;;;16.20;9.27;;;;;;;3.66;61.88;102160.22;4950611;28;113833;-67
2021/01/09 03:42:22;;;;;;;17.00;9.52;;;;;;;3.65;61.87;102166.31;4951259;28;124186;-68
2021/01/09 03:44:48;;;;;;;18.17;9.38;;;;;;;3.63;62.08;102168.06;4942596;28;123979;-68
2021/01/09 03:47:15;;;;;;;17.48;9.23;;;;;;;3.62;62.22;102166.31;4939975;28;114750;-68
2021/01/09 03:49:42;;;;;;;14.23;8.75;;;;;;;3.61;61.90;102163.69;4934173;28;114513;-68
2021/01/09 03:52:09;;;;;;;16.85;9.18;;;;;;;3.59;62.15;102168.91;4949224;28;123949;-68
2021/01/09 03:54:35;;;;;;;17.08;8.90;;;;;;;3.60;61.98;102167.16;4949739;28;123742;-69
2021/01/09 03:57:03;;;;;;;15.73;8.82;;;;;;;3.58;62.30;102169.78;4948293;28;114256;-68
2021/01/09 03:59:29;;;;;;;17.95;9.60;;;;;;;3.58;62.30;102175.03;4933589;28;113092;-69
2021/01/09 04:01:56;;;;;;;14.65;9.20;;;;;;;3.58;62.13;102179.38;4947778;28;124120;-69
2021/01/09 04:04:23;;;;;;;16.77;8.75;;;;;;;3.57;61.93;102183.75;4950452;28;124626;-68
2021/01/09 04:06:49;;;;;;;16.75;9.20;;;;;;;3.55;62.01;102180.25;4944395;28;114459;-69
2021/01/09 04:09:16;;;;;;;15.55;9.23;;;;;;;3.56;62.19;102175.88;4949663;28;113972;-69
2021/01/09 04:11:42;;;;;;;17.00;9.50;;;;;;;3.55;61.74;102180.25;4947809;28;124268;-69
2021/01/09 04:14:09;;;;;;;13.80;8.23;;;;;;;3.55;62.26;102177.63;4942661;28;124355;-68
2021/01/09 04:16:36;;;;;;;16.67;9.50;;;;;;;3.55;62.01;102177.63;4933517;28;114611;-68
2021/01/09 04:19:04;;;;;;;15.93;9.20;;;;;;;3.53;62.16;102176.75;4946398;28;113833;-68
2021/01/09 04:21:30;;;;;;;15.80;9.35;;;;;;;3.52;62.12;102180.22;4928260;28;122213;-68
2021/01/09 04:23:57;;;;;;;14.27;8.43;;;;;;;3.52;62.21;102180.22;4930393;28;122713;-68
2021/01/09 04:26:23;;;;;;;16.80;8.48;;;;;;;3.52;62.37;102185.44;4945994;28;115344;-68
2021/01/09 04:28:50;;;;;;;14.30;8.48;;;;;;;3.52;62.22;102185.44;4947165;28;114829;-68
2021/01/09 04:31:16;;;;;;;14.90;8.63;;;;;;;3.52;61.92;102188.06;4949697;28;124603;-69
2021/01/09 04:33:43;;;;;;;16.63;9.02;;;;;;;3.51;62.13;102188.97;4945560;28;123743;-69
2021/01/09 04:36:10;;;;;;;15.27;8.63;;;;;;;3.50;62.09;102181.94;4932589;28;114274;-69
2021/01/09 04:38:36;;;;;;;13.93;8.25;;;;;;;3.49;62.05;102185.47;4954779;28;114426;-68
2021/01/09 04:41:03;;;;;;;13.93;8.10;;;;;;;3.47;62.04;102181.97;4953293;28;124080;-68
2021/01/09 04:43:30;;;;;;;16.80;8.60;;;;;;;3.45;61.82;102194.16;4952950;28;124121;-68
2021/01/09 04:45:56;;;;;;;12.75;7.90;;;;;;;3.42;61.93;102196.75;4917970;28;113393;-67
2021/01/09 04:48:23;;;;;;;14.23;8.43;;;;;;;3.40;61.88;102193.25;4935935;28;113252;-68
2021/01/09 04:50:51;;;;;;;14.63;8.00;;;;;;;3.37;61.75;102191.50;4949251;28;124738;-68
2021/01/09 04:53:19;;;;;;;15.25;7.95;;;;;;;3.34;61.64;102195.84;4917330;28;122751;-69
2021/01/09 04:55:46;;;;;;;12.07;7.75;;;;;;;3.31;61.70;102197.56;4946898;28;114429;-68
2021/01/09 04:58:14;;;;;;;16.58;8.50;;;;;;;3.27;61.57;102195.78;4944521;28;114501;-68
2021/01/09 05:00:41;;;;;;;11.98;8.13;;;;;;;3.25;61.66;102191.41;4944881;28;124395;-69
2021/01/09 05:03:08;;;;;;;14.23;8.70;;;;;;;3.22;61.74;102197.50;4934672;28;124023;-68
2021/01/09 05:05:34;;;;;;;15.38;8.25;;;;;;;3.19;61.89;102197.47;4936755;28;114771;-68
2021/01/09 05:08:01;;;;;;;13.93;8.45;;;;;;;3.18;61.81;102200.94;4954505;28;114250;-68
2021/01/09 05:10:33;;;;;;;13.45;8.27;;;;;;;3.17;61.80;102199.19;4952503;28;124153;-68
2021/01/09 05:13:00;;;;;;;13.90;8.10;;;;;;;3.16;61.87;102202.66;4933066;28;122098;-67
2021/01/09 05:15:37;;;;;;;14.60;8.25;;;;;;;3.15;61.95;102206.19;4945711;28;115854;-68
2021/01/09 05:18:05;;;;;;;15.32;8.70;;;;;;;3.14;61.97;102199.16;4949070;28;114281;-68
2021/01/09 05:20:32;;;;;;;14.30;8.30;;;;;;;3.14;61.79;102209.63;4949177;28;124176;-67
2021/01/09 05:23:02;;;;;;;19.63;9.73;;;;;;;3.12;61.91;102206.13;4951625;28;124259;-68
2021/01/09 05:25:29;;;;;;;16.02;8.75;;;;;;;3.10;61.79;102202.63;4943251;28;115042;-68
2021/01/09 05:27:58;;;;;;;16.80;9.10;;;;;;;3.09;61.92;102206.13;4940171;28;112836;-68
2021/01/09 05:30:25;;;;;;;17.08;9.15;;;;;;;3.07;61.97;102218.31;4949567;28;124444;-68
2021/01/09 05:32:52;;;;;;;15.20;9.07;;;;;;;3.05;61.68;102220.03;4935212;28;123950;-68
2021/01/09 05:35:19;;;;;;;14.88;8.48;;;;;;;3.03;61.74;102221.75;4951843;28;115571;-68
2021/01/09 05:37:50;;;;;;;14.65;8.90;;;;;;;3.02;61.65;102225.25;4948211;28;114112;-68
2021/01/09 05:40:17;;;;;;;14.80;8.57;;;;;;;3.00;61.72;102221.75;4946274;28;124027;-68
2021/01/09 05:42:44;;;;;;;14.32;8.25;;;;;;;2.99;61.84;102225.22;4948476;28;123968;-68
2021/01/09 05:45:12;;;;;;;16.52;8.07;;;;;;;2.97;61.68;102222.59;4949115;28;113177;-68
2021/01/09 05:47:39;;;;;;;16.10;9.45;;;;;;;2.96;61.78;102219.94;4941312;28;113787;-69
2021/01/09 05:50:07;;;;;;;15.65;8.40;;;;;;;2.93;61.72;102221.69;4934184;28;123174;-68
2021/01/09 05:52:38;;;;;;;13.95;8.93;;;;;;;2.91;61.70;102223.41;4930635;28;124167;-68
2021/01/09 05:55:06;;;;;;;15.85;8.27;;;;;;;2.89;61.58;102230.38;4934591;28;115019;-68
2021/01/09 05:57:35;;;;;;;15.95;8.65;;;;;;;2.88;61.76;102223.41;4926775;28;114353;-69
2021/01/09 06:00:10;;;;;;;15.30;8.32;;;;;;;2.86;61.67;102222.53;4948456;28;124294;-68
2021/01/09 06:03:09;;;;;;;13.90;8.38;;;;;;;2.83;61.76;102232.94;4945607;28;123183;-69
2021/01/09 06:05:46;;;;;;;15.60;8.90;;;;;;;2.83;61.61;102235.56;4949167;28;115997;-69
2021/01/09 06:08:17;;;;;;;14.98;8.48;;;;;;;2.81;61.46;102237.28;4949852;28;114685;-68
2021/01/09 06:10:46;;;;;;;14.25;8.23;;;;;;;2.79;61.63;102239.00;4937129;28;121571;-68
2021/01/09 06:13:13;;;;;;;17.00;8.50;;;;;;;2.79;61.56;102244.25;4951481;28;124095;-69
2021/01/09 06:15:46;;;;;;;14.50;8.25;;;;;;;2.77;61.73;102245.97;4930067;28;113566;-68
2021/01/09 06:18:13;;;;;;;15.10;8.32;;;;;;;2.76;61.69;102254.66;4951570;28;113555;-69
2021/01/09 06:20:39;;;;;;;15.98;8.80;;;;;;;2.76;61.58;102254.66;4926859;28;122033;-68
2021/01/09 06:23:07;;;;;;;16.55;8.57;;;;;;;2.75;61.49;102255.53;4953577;28;124151;-69
2021/01/09 06:25:35;;;;;;;14.38;8.80;;;;;;;2.72;61.60;102248.53;4952634;28;114163;-68
2021/01/09 06:28:05;;;;;;;17.40;8.38;;;;;;;2.73;61.58;102254.63;4934341;28;114422;-68
2021/01/09 06:30:33;;;;;;;16.05;8.77;;;;;;;2.71;61.65;102251.13;4932053;28;124362;-68
2021/01/09 06:33:03;;;;;;;22.75;9.93;;;;;;;2.70;61.55;102252.00;4934298;28;123638;-68
2021/01/09 06:35:33;;;;;;;19.90;9.68;;;;;;;2.69;61.67;102258.97;4934329;28;114309;-68
2021/01/09 06:38:01;;;;;;;19.70;9.27;;;;;;;2.68;61.43;102258.97;4936290;28;113310;-68
2021/01/09 06:40:29;;;;;;;21.13;9.75;;;;;;;2.68;61.81;102261.56;4953537;28;124308;-69
2021/01/09 06:42:56;;;;;;;24.33;10.45;;;;;;;2.68;61.92;102261.56;4948652;28;123539;-68
2021/01/09 06:45:23;;;;;;;18.83;9.57;;;;;;;2.68;61.99;102253.72;4918617;28;112249;-68
2021/01/09 06:47:58;;;;;;;22.67;10.27;;;;;;;2.69;61.94;102263.31;4934746;28;113630;-68
2021/01/09 06:50:25;;;;;;;25.13;9.73;;;;;;;2.72;61.82;102258.13;4948756;28;121952;-69
2021/01/09 06:52:52;;;;;;;22.38;9.98;;;;;;;2.74;62.09;102259.00;4931807;28;124423;-69
2021/01/09 06:55:37;;;;;;;27.02;10.38;;;;;;;2.75;61.99;102263.41;4950796;28;116638;-68
2021/01/09 06:58:08;;;;;;;26.90;11.10;;;;;;;2.78;61.94;102263.41;4932932;28;114572;-68
2021/01/09 07:00:37;;;;;;;25.10;9.90;;;;;;;2.80;62.04;102266.91;4949901;28;123990;-69
2021/01/09 07:03:18;;;;;;;25.92;10.57;;;;;;;2.82;62.07;102275.66;4948743;28;124280;-68
2021/01/09 07:05:46;;;;;;;25.00;10.93;;;;;;;2.84;62.16;102273.94;4947828;28;113426;-69
2021/01/09 07:08:22;;;;;;;25.75;10.38;;;;;;;2.86;62.02;102277.47;4934217;28;116110;-68
2021/01/09 07:10:52;;;;;;;24.95;10.85;;;;;;;2.89;62.38;102272.25;4953071;28;123062;-68
2021/01/09 07:13:21;;;;;;;38.90;11.05;;;;;;;2.90;62.19;102273.09;4944946;28;123703;-68
2021/01/09 07:16:05;;;;;;;52.72;11.73;;;;;;;2.93;62.21;102274.00;4952503;28;114491;-68
2021/01/09 07:18:36;;;;;;;39.80;11.02;;;;;;;2.96;62.19;102277.53;4931881;28;113932;-69
2021/01/09 07:21:05;;;;;;;65.93;12.73;;;;;;;2.98;62.25;102281.06;4933346;28;124128;-69
2021/01/09 07:23:34;;;;;;;35.97;11.52;;;;;;;3.01;62.57;102286.31;4930751;28;124183;-67
2021/01/09 07:26:04;;;;;;;84.72;14.35;;;;;;;3.03;62.42;102279.34;4951602;28;113526;-67
2021/01/09 07:28:35;;;;;;;29.83;10.95;;;;;;;3.05;62.29;102282.84;4918227;28;112923;-68
2021/01/09 07:31:08;;;;;;;24.73;10.68;;;;;;;3.06;62.40;102288.09;4946927;28;123690;-68
2021/01/09 07:33:37;;;;;;;33.38;11.20;;;;;;;3.08;62.37;102288.13;4942657;28;124120;-68
2021/01/09 07:36:04;;;;;;;33.60;10.55;;;;;;;3.10;62.39;102295.13;4943142;28;113986;-67
2021/01/09 07:38:31;;;;;;;49.70;10.52;;;;;;;3.12;62.35;102295.13;4946584;28;114011;-67
2021/01/09 07:41:00;;;;;;;35.97;10.70;;;;;;;3.13;62.28;102296.91;4949615;28;123791;-67
2021/01/09 07:43:46;;;;;;;35.45;10.05;;;;;;;3.12;62.05;102305.59;4948655;28;123883;-67
2021/01/09 07:46:30;;;;;;;25.17;9.70;;;;;;;3.12;62.34;102305.59;4945279;28;115191;-68
2021/01/09 07:49:03;;;;;;;36.58;9.50;;;;;;;3.10;62.21;102312.56;4935451;28;115242;-67
2021/01/09 07:51:49;;;;;;;28.05;9.57;;;;;;;3.07;62.23;102323.91;4947597;28;124332;-67
2021/01/09 07:54:32;;;;;;;27.55;10.65;;;;;;;3.05;62.12;102315.16;4947366;28;124730;-68
2021/01/09 07:57:00;;;;;;;30.17;9.98;;;;;;;3.06;62.28;102321.25;4949667;28;113505;-67
2021/01/09 07:59:27;;;;;;;27.58;10.18;;;;;;;3.06;62.32;102322.13;4932805;28;112926;-67
2021/01/09 08:01:53;;;;;;;29.45;11.35;;;;;;;3.07;62.32;102317.75;4949051;28;124053;-68
2021/01/09 08:04:20;;;;;;;39.08;11.35;;;;;;;3.07;62.26;102323.91;4941314;28;124049;-69
2021/01/09 08:06:46;;;;;;;37.47;10.65;;;;;;;3.06;62.35;102323.88;4947768;28;114446;-68
2021/01/09 08:09:14;;;;;;;38.05;10.82;;;;;;;3.06;62.38;102321.25;4946855;28;114157;-67
2021/01/09 08:11:45;;;;;;;34.80;11.98;;;;;;;3.06;62.42;102321.25;4950193;28;124480;-68
2021/01/09 08:14:13;;;;;;;54.80;13.15;;;;;;;3.04;62.09;102326.47;4936762;28;124295;-68
2021/01/09 08:16:40;;;;;;;118.22;15.23;;;;;;;3.02;62.11;102329.94;4950772;28;114382;-68
2021/01/09 08:19:15;;;;;;;102.10;14.10;;;;;;;2.99;62.16;102329.91;4918173;28;113236;-69
2021/01/09 08:21:42;;;;;;;45.05;12.27;;;;;;;2.99;62.15;102335.13;4942019;28;122834;-68
2021/01/09 08:24:08;;;;;;;49.70;12.13;;;;;;;2.98;62.35;102349.09;4942665;28;124324;-68
2021/01/09 08:26:36;;;;;;;42.65;11.15;;;;;;;2.98;62.38;102344.75;4930490;28;115000;-69
2021/01/09 08:29:03;;;;;;;62.08;14.30;;;;;;;2.99;62.28;102350.84;4952355;28;114069;-69
2021/01/09 08:31:33;;;;;;;49.33;12.40;;;;;;;2.98;62.19;102344.75;4951985;28;124850;-68
2021/01/09 08:34:02;;;;;;;40.70;13.93;;;;;;;2.99;62.32;102351.72;4942753;28;124700;-68
2021/01/09 08:36:28;;;;;;;38.80;13.77;;;;;;;2.99;62.35;102350.84;4934428;28;115089;-68
2021/01/09 08:38:55;;;;;;;40.30;12.75;;;;;;;3.00;62.41;102353.47;4931226;28;115875;-69
2021/01/09 08:41:22;;;;;;;38.92;13.52;;;;;;;3.01;62.31;102354.34;4934831;28;123124;-69
2021/01/09 08:43:48;;;;;;;24.70;13.32;;;;;;;3.03;62.36;102347.38;4942802;28;125016;-69
2021/01/09 08:46:15;;;;;;;40.80;13.45;;;;;;;3.05;62.46;102356.13;4933167;28;113187;-68
2021/01/09 08:48:42;;;;;;;45.42;12.90;;;;;;;3.04;62.10;102354.41;4937796;28;114516;-69
2021/01/09 08:51:12;;;;;;;31.23;11.98;;;;;;;3.04;61.74;102354.41;4938895;28;124175;-69
2021/01/09 08:53:48;;;;;;;23.10;11.00;;;;;;;3.03;62.00;102360.47;4925527;28;122726;-69
2021/01/09 08:56:16;;;;;;;22.63;10.95;;;;;;;3.03;62.09;102358.75;4930552;28;114320;-69
2021/01/09 08:58:43;;;;;;;23.70;10.68;;;;;;;3.04;62.33;102367.47;4951309;28;114562;-69
2021/01/09 09:01:14;;;;;;;21.42;10.90;;;;;;;3.04;62.07;102365.75;4949840;28;124901;-69
2021/01/09 09:03:52;;;;;;;21.15;11.13;;;;;;;3.04;62.52;102364.88;4945658;28;123290;-68
2021/01/09 09:06:21;;;;;;;17.20;9.93;;;;;;;3.07;62.15;102375.34;4945614;28;114259;-69
2021/01/09 09:08:48;;;;;;;18.05;10.55;;;;;;;3.08;62.23;102383.22;4936080;28;113160;-68
2021/01/09 09:11:15;;;;;;;17.90;10.57;;;;;;;3.10;62.39;102386.72;4950623;28;124738;-68
2021/01/09 09:13:42;;;;;;;17.95;10.02;;;;;;;3.14;62.42;102377.19;4947804;28;123969;-69
2021/01/09 09:16:17;;;;;;;18.48;10.73;;;;;;;3.15;62.44;102384.19;4952357;28;114447;-69
2021/01/09 09:18:44;;;;;;;17.83;11.35;;;;;;;3.18;62.55;102378.97;4956354;23;114347;-71
2021/01/09 09:21:11;;;;;;;17.83;10.38;;;;;;;3.21;62.29;102389.47;4932042;28;124082;-71
2021/01/09 09:23:38;;;;;;;17.55;9.85;;;;;;;3.24;62.42;102391.22;4945720;28;123868;-71
2021/01/09 09:26:07;;;;;;;18.55;11.68;;;;;;;3.27;62.45;102394.75;4945422;28;115968;-70
2021/01/09 09:28:54;;;;;;;22.42;11.98;;;;;;;3.30;62.46;102394.81;4959872;28;115025;-71
2021/01/09 09:31:23;;;;;;;19.77;11.23;;;;;;;3.34;62.50;102394.84;4904386;28;123130;-72
2021/01/09 09:34:13;;;;;;;21.30;11.50;;;;;;;3.37;62.61;102394.84;4927978;28;124597;-71
2021/01/09 09:36:48;;;;;;;20.33;11.40;;;;;;;3.41;62.47;102401.88;4923918;28;114380;-71
2021/01/09 09:39:20;;;;;;;22.90;11.98;;;;;;;3.45;62.66;102403.69;4923542;28;113342;-72
2021/01/09 09:41:55;;;;;;;22.10;13.02;;;;;;;3.51;62.69;102416.84;4925096;28;123817;-71
2021/01/09 09:44:37;;;;;;;21.25;13.02;;;;;;;3.56;62.62;102412.53;4927634;28;122556;-71
2021/01/09 09:47:09;;;;;;;21.58;12.25;;;;;;;3.62;62.70;102415.19;4928639;28;113659;-71
2021/01/09 09:49:38;;;;;;;20.63;12.13;;;;;;;3.66;62.63;102419.59;4940914;28;114221;-71
2021/01/09 09:52:18;;;;;;;23.23;13.07;;;;;;;3.70;62.64;102416.13;4933965;28;124763;-71
2021/01/09 09:54:46;;;;;;;21.70;12.68;;;;;;;3.76;62.67;102414.44;4915226;28;123232;-71
2021/01/09 09:57:23;;;;;;;21.17;12.55;;;;;;;3.80;63.01;102416.22;4933714;28;114318;-70
2021/01/09 10:00:06;;;;;;;20.35;13.07;;;;;;;3.84;62.62;102418.00;4925404;28;114287;-70
2021/01/09 10:02:54;;;;;;;21.60;13.25;;;;;;;3.87;62.57;102412.78;4918546;28;123855;-69
2021/01/09 10:05:25;;;;;;;22.65;14.07;;;;;;;3.91;62.57;102414.56;4936717;28;124651;-69
2021/01/09 10:08:14;;;;;;;20.23;13.80;;;;;;;3.94;62.73;102425.09;4920244;28;113298;-69
2021/01/09 10:10:43;;;;;;;19.95;13.02;;;;;;;3.98;62.75;102420.75;4916560;28;113865;-69
2021/01/09 10:13:09;;;;;;;22.63;14.13;;;;;;;4.02;62.72;102412.03;4913236;28;124417;-69
2021/01/09 10:15:37;;;;;;;22.73;14.20;;;;;;;4.06;62.64;102417.28;4896841;28;123944;-69
2021/01/09 10:18:03;;;;;;;21.27;14.38;;;;;;;4.12;62.61;102418.22;4911166;28;115814;-69
2021/01/09 10:20:30;;;;;;;22.33;14.43;;;;;;;4.16;62.60;102414.75;4916360;28;115091;-69
2021/01/09 10:22:57;;;;;;;25.15;14.65;;;;;;;4.21;62.77;102407.78;4932254;28;123870;-69
2021/01/09 10:25:24;;;;;;;20.25;13.60;;;;;;;4.26;62.78;102412.19;4943178;28;123831;-69
2021/01/09 10:27:51;;;;;;;21.25;14.48;;;;;;;4.31;62.77;102404.34;4925347;28;114209;-69
2021/01/09 10:30:19;;;;;;;25.83;15.48;;;;;;;4.37;62.78;102393.91;4897067;28;111944;-69
2021/01/09 10:32:45;;;;;;;27.00;16.48;;;;;;;4.42;62.56;102402.66;4899345;28;123576;-69
2021/01/09 10:35:12;;;;;;;23.83;16.08;;;;;;;4.46;62.83;102404.47;4913806;28;124318;-69
2021/01/09 10:37:39;;;;;;;28.40;17.08;;;;;;;4.52;62.77;102402.72;4908887;28;113176;-69
2021/01/09 10:40:06;;;;;;;25.73;16.63;;;;;;;4.57;62.79;102401.88;4930358;28;114253;-69
2021/01/09 10:42:33;;;;;;;25.50;16.42;;;;;;;4.61;62.96;102402.75;4924323;28;123769;-69
2021/01/09 10:44:59;;;;;;;27.38;16.45;;;;;;;4.66;62.87;102398.44;4912343;28;123439;-70
2021/01/09 10:47:26;;;;;;;25.55;16.50;;;;;;;4.70;63.16;102402.81;4928198;28;115221;-70
2021/01/09 10:49:56;;;;;;;25.00;16.38;;;;;;;4.74;62.78;102401.94;4932285;28;114642;-70
2021/01/09 10:52:24;;;;;;;26.30;15.80;;;;;;;4.81;62.93;102395.84;4922964;28;123842;-70
2021/01/09 10:54:50;;;;;;;24.88;15.05;;;;;;;4.85;62.99;102395.00;4930534;28;124324;-70
2021/01/09 10:57:17;;;;;;;24.63;15.35;;;;;;;4.90;62.88;102388.88;4911578;28;113795;-70
2021/01/09 10:59:43;;;;;;;28.35;15.90;;;;;;;4.95;62.93;102387.16;4949215;28;114302;-69
2021/01/09 11:02:10;;;;;;;23.80;15.30;;;;;;;5.00;63.12;102388.06;4927069;28;125552;-70
2021/01/09 11:04:37;;;;;;;24.25;15.20;;;;;;;5.05;63.14;102383.69;4927663;28;123857;-70
2021/01/09 11:07:03;;;;;;;26.20;16.55;;;;;;;5.08;62.99;102378.44;4931150;28;115731;-70
2021/01/09 11:09:30;;;;;;;24.27;14.35;;;;;;;5.12;63.28;102380.19;4909269;28;114804;-70
2021/01/09 11:11:56;;;;;;;21.63;13.27;;;;;;;5.18;63.42;102377.59;4932166;28;123177;-69
2021/01/09 11:14:23;;;;;;;22.70;13.55;;;;;;;5.25;63.53;102375.84;4914645;28;123697;-70
2021/01/09 11:16:54;;;;;;;21.70;12.90;;;;;;;5.32;63.50;102371.50;4915014;28;114545;-70
2021/01/09 11:19:21;;;;;;;18.48;12.73;;;;;;;5.40;63.59;102365.34;4914236;28;114130;-70
2021/01/09 11:21:47;;;;;;;20.77;12.90;;;;;;;5.49;63.81;102367.13;4927886;28;123759;-70